sensor_id;sensor_type;location;lat;lon;timestamp;pressure;altitude;pressure_sealevel;temperature;humidity
27014;BME280;14556;52.222;4.510;2023-05-23T00:00:57;101298.28;;;10.70;100.00
27014;BME280;14556;52.222;4.510;2023-05-23T00:03:27;101305.75;;;10.74;100.00
27014;BME280;14556;52.222;4.510;2023-05-23T00:05:56;101309.44;;;10.73;100.00
27014;BME280;14556;52.222;4.510;2023-05-23T00:08:24;101314.97;;;10.72;100.00
27014;BME280;14556;52.222;4.510;2023-05-23T00:10:51;101307.97;;;10.71;100.00
27014;BME280;14556;52.222;4.510;2023-05-23T00:13:17;101314.16;;;10.71;100.00
27014;BME280;14556;52.222;4.510;2023-05-23T00:15:44;101310.38;;;10.66;100.00
27014;BME280;14556;52.222;4.510;2023-05-23T00:18:11;101313.88;;;10.66;100.00
27014;BME280;14556;52.222;4.510;2023-05-23T00:20:39;101316.91;;;10.63;100.00
27014;BME280;14556;52.222;4.510;2023-05-23T00:23:09;101314.25;;;10.63;100.00
27014;BME280;14556;52.222;4.510;2023-05-23T00:25:36;101298.56;;;10.60;100.00
27014;BME280;14556;52.222;4.510;2023-05-23T00:28:03;101317.81;;;10.70;100.00
27014;BME280;14556;52.222;4.510;2023-05-23T00:30:31;101315.53;;;10.67;100.00
27014;BME280;14556;52.222;4.510;2023-05-23T00:32:59;101314.16;;;10.71;100.00
27014;BME280;14556;52.222;4.510;2023-05-23T00:35:25;101313.50;;;10.69;100.00
27014;BME280;14556;52.222;4.510;2023-05-23T00:37:52;101316.63;;;10.73;100.00
27014;BME280;14556;52.222;4.510;2023-05-23T00:40:20;101320.88;;;10.67;100.00
27014;BME280;14556;52.222;4.510;2023-05-23T00:42:47;101327.06;;;10.68;100.00
27014;BME280;14556;52.222;4.510;2023-05-23T00:45:14;101312.22;;;10.65;100.00
27014;BME280;14556;52.222;4.510;2023-05-23T00:47:42;101317.75;;;10.63;100.00
27014;BME280;14556;52.222;4.510;2023-05-23T00:50:13;101323.94;;;10.64;100.00
27014;BME280;14556;52.222;4.510;2023-05-23T00:52:42;101317.56;;;10.65;100.00
27014;BME280;14556;52.222;4.510;2023-05-23T00:55:09;101323.75;;;10.66;100.00
27014;BME280;14556;52.222;4.510;2023-05-23T00:57:37;101326.03;;;10.69;100.00
27014;BME280;14556;52.222;4.510;2023-05-23T01:00:07;101332.88;;;10.71;100.00
27014;BME280;14556;52.222;4.510;2023-05-23T01:02:39;101321.53;;;10.69;100.00
27014;BME280;14556;52.222;4.510;2023-05-23T01:05:09;101318.22;;;10.67;100.00
27014;BME280;14556;52.222;4.510;2023-05-23T01:07:36;101313.88;;;10.66;100.00
27014;BME280;14556;52.222;4.510;2023-05-23T01:10:03;101308.06;;;10.62;100.00
27014;BME280;14556;52.222;4.510;2023-05-23T01:12:37;101317.38;;;10.67;100.00
27014;BME280;14556;52.222;4.510;2023-05-23T01:15:08;101323.56;;;10.67;100.00
27014;BME280;14556;52.222;4.510;2023-05-23T01:17:54;101316.09;;;10.62;100.00
27014;BME280;14556;52.222;4.510;2023-05-23T01:20:30;101326.16;;;10.60;100.00
27014;BME280;14556;52.222;4.510;2023-05-23T01:25:46;101329.84;;;10.59;100.00
27014;BME280;14556;52.222;4.510;2023-05-23T01:28:20;101330.03;;;10.58;100.00
27014;BME280;14556;52.222;4.510;2023-05-23T01:30:50;101339.06;;;10.57;100.00
27014;BME280;14556;52.222;4.510;2023-05-23T01:33:19;101325.63;;;10.50;100.00
27014;BME280;14556;52.222;4.510;2023-05-23T01:35:48;101330.41;;;10.55;100.00
27014;BME280;14556;52.222;4.510;2023-05-23T01:38:14;101327.00;;;10.61;100.00
27014;BME280;14556;52.222;4.510;2023-05-23T01:40:41;101320.91;;;10.52;100.00
27014;BME280;14556;52.222;4.510;2023-05-23T01:43:08;101329.22;;;10.57;100.00
27014;BME280;14556;52.222;4.510;2023-05-23T01:45:34;101323.41;;;10.54;100.00
27014;BME280;14556;52.222;4.510;2023-05-23T01:48:03;101339.06;;;10.57;100.00
27014;BME280;14556;52.222;4.510;2023-05-23T01:50:31;101336.41;;;10.57;100.00
27014;BME280;14556;52.222;4.510;2023-05-23T01:52:59;101341.75;;;10.57;100.00
27014;BME280;14556;52.222;4.510;2023-05-23T01:55:25;101338.03;;;10.58;100.00
27014;BME280;14556;52.222;4.510;2023-05-23T01:57:54;101338.22;;;10.56;100.00
27014;BME280;14556;52.222;4.510;2023-05-23T02:00:22;101328.94;;;10.52;100.00
27014;BME280;14556;52.222;4.510;2023-05-23T02:02:49;101339.25;;;10.55;100.00
27014;BME280;14556;52.222;4.510;2023-05-23T02:05:16;101331.81;;;10.50;100.00
27014;BME280;14556;52.222;4.510;2023-05-23T02:07:42;101341.09;;;10.55;100.00
27014;BME280;14556;52.222;4.510;2023-05-23T02:10:09;101341.38;;;10.45;100.00
27014;BME280;14556;52.222;4.510;2023-05-23T02:12:35;101344.53;;;10.48;100.00
27014;BME280;14556;52.222;4.510;2023-05-23T02:15:03;101355.56;;;10.45;100.00
27014;BME280;14556;52.222;4.510;2023-05-23T02:17:29;101359.19;;;10.52;100.00
27014;BME280;14556;52.222;4.510;2023-05-23T02:19:56;101369.72;;;10.54;100.00
27014;BME280;14556;52.222;4.510;2023-05-23T02:22:23;101367.19;;;10.52;100.00
27014;BME280;14556;52.222;4.510;2023-05-23T02:24:51;101366.78;;;10.49;100.00
27014;BME280;14556;52.222;4.510;2023-05-23T02:27:18;101358.75;;;10.49;100.00
27014;BME280;14556;52.222;4.510;2023-05-23T02:29:44;101368.22;;;10.51;100.00
27014;BME280;14556;52.222;4.510;2023-05-23T02:32:11;101371.75;;;10.52;100.00
27014;BME280;14556;52.222;4.510;2023-05-23T02:34:37;101366.63;;;10.42;100.00
27014;BME280;14556;52.222;4.510;2023-05-23T02:37:04;101356.94;;;10.41;100.00
27014;BME280;14556;52.222;4.510;2023-05-23T02:39:30;101363.13;;;10.42;100.00
27014;BME280;14556;52.222;4.510;2023-05-23T02:41:57;101360.00;;;10.38;100.00
27014;BME280;14556;52.222;4.510;2023-05-23T02:44:23;101363.03;;;10.35;100.00
27014;BME280;14556;52.222;4.510;2023-05-23T02:46:50;101376.84;;;10.38;100.00
27014;BME280;14556;52.222;4.510;2023-05-23T02:49:17;101378.06;;;10.36;100.00
27014;BME280;14556;52.222;4.510;2023-05-23T02:51:43;101342.84;;;10.17;100.00
27014;BME280;14556;52.222;4.510;2023-05-23T02:54:10;101370.59;;;10.31;100.00
27014;BME280;14556;52.222;4.510;2023-05-23T02:56:36;101363.84;;;10.20;100.00
27014;BME280;14556;52.222;4.510;2023-05-23T02:59:03;101380.84;;;10.27;100.00
27014;BME280;14556;52.222;4.510;2023-05-23T03:01:29;101377.13;;;10.28;100.00
27014;BME280;14556;52.222;4.510;2023-05-23T03:03:56;101380.84;;;10.27;100.00
27014;BME280;14556;52.222;4.510;2023-05-23T03:06:22;101385.16;;;10.28;100.00
27014;BME280;14556;52.222;4.510;2023-05-23T03:08:49;101376.66;;;10.25;100.00
27014;BME280;14556;52.222;4.510;2023-05-23T03:11:16;101385.25;;;10.20;100.00
27014;BME280;14556;52.222;4.510;2023-05-23T03:13:42;101380.56;;;10.22;100.00
27014;BME280;14556;52.222;4.510;2023-05-23T03:16:09;101392.06;;;10.23;100.00
27014;BME280;14556;52.222;4.510;2023-05-23T03:18:37;101393.91;;;10.22;100.00
27014;BME280;14556;52.222;4.510;2023-05-23T03:21:03;101392.53;;;10.11;100.00
27014;BME280;14556;52.222;4.510;2023-05-23T03:23:30;101381.34;;;10.08;100.00
27014;BME280;14556;52.222;4.510;2023-05-23T03:25:56;101381.34;;;10.08;100.00
27014;BME280;14556;52.222;4.510;2023-05-23T03:28:25;101402.38;;;10.11;100.00
27014;BME280;14556;52.222;4.510;2023-05-23T03:30:51;101411.41;;;10.10;100.00
27014;BME280;14556;52.222;4.510;2023-05-23T03:33:18;101405.41;;;10.08;100.00
27014;BME280;14556;52.222;4.510;2023-05-23T03:35:44;101403.09;;;10.04;100.00
27014;BME280;14556;52.222;4.510;2023-05-23T03:38:11;101418.69;;;10.01;100.00
27014;BME280;14556;52.222;4.510;2023-05-23T03:40:37;101406.84;;;9.95;100.00
27014;BME280;14556;52.222;4.510;2023-05-23T03:43:05;101406.19;;;9.93;100.00
27014;BME280;14556;52.222;4.510;2023-05-23T03:45:32;101415.50;;;9.82;100.00
27014;BME280;14556;52.222;4.510;2023-05-23T03:47:59;101414.47;;;9.83;100.00
27014;BME280;14556;52.222;4.510;2023-05-23T03:50:27;101421.66;;;9.83;100.00
27014;BME280;14556;52.222;4.510;2023-05-23T03:52:53;101419.81;;;9.83;100.00
27014;BME280;14556;52.222;4.510;2023-05-23T03:55:21;101419.88;;;9.75;100.00
27014;BME280;14556;52.222;4.510;2023-05-23T03:57:50;101419.59;;;9.70;100.00
27014;BME280;14556;52.222;4.510;2023-05-23T04:00:17;101418.69;;;9.77;100.00
27014;BME280;14556;52.222;4.510;2023-05-23T04:02:44;101422.84;;;9.80;100.00
27014;BME280;14556;52.222;4.510;2023-05-23T04:05:12;101422.84;;;9.80;100.00
27014;BME280;14556;52.222;4.510;2023-05-23T04:07:38;101428.28;;;9.72;100.00
27014;BME280;14556;52.222;4.510;2023-05-23T04:10:07;101429.97;;;9.64;100.00
27014;BME280;14556;52.222;4.510;2023-05-23T04:12:35;101435.81;;;9.68;100.00
27014;BME280;14556;52.222;4.510;2023-05-23T04:15:02;101425.69;;;9.55;100.00
27014;BME280;14556;52.222;4.510;2023-05-23T04:17:29;101441.03;;;9.61;100.00
27014;BME280;14556;52.222;4.510;2023-05-23T04:19:57;101437.69;;;9.59;100.00
27014;BME280;14556;52.222;4.510;2023-05-23T04:22:23;101432.88;;;9.54;100.00
27014;BME280;14556;52.222;4.510;2023-05-23T04:24:50;101449.19;;;9.60;100.00
27014;BME280;14556;52.222;4.510;2023-05-23T04:27:16;101452.00;;;9.66;100.00
27014;BME280;14556;52.222;4.510;2023-05-23T04:29:43;101443.03;;;9.59;100.00
27014;BME280;14556;52.222;4.510;2023-05-23T04:32:12;101457.88;;;9.62;100.00
27014;BME280;14556;52.222;4.510;2023-05-23T04:34:38;101466.53;;;9.64;100.00
27014;BME280;14556;52.222;4.510;2023-05-23T04:37:06;101459.06;;;9.59;100.00
27014;BME280;14556;52.222;4.510;2023-05-23T04:39:34;101467.38;;;9.64;100.00
27014;BME280;14556;52.222;4.510;2023-05-23T04:42:01;101471.34;;;9.68;100.00
27014;BME280;14556;52.222;4.510;2023-05-23T04:44:27;101469.63;;;9.52;100.00
27014;BME280;14556;52.222;4.510;2023-05-23T04:46:55;101466.16;;;9.43;100.00
27014;BME280;14556;52.222;4.510;2023-05-23T04:49:22;101467.69;;;9.38;100.00
27014;BME280;14556;52.222;4.510;2023-05-23T04:51:49;101472.19;;;9.37;100.00
27014;BME280;14556;52.222;4.510;2023-05-23T04:54:16;101479.03;;;9.40;100.00
27014;BME280;14556;52.222;4.510;2023-05-23T04:56:42;101475.84;;;9.45;100.00
27014;BME280;14556;52.222;4.510;2023-05-23T04:59:09;101472.84;;;9.39;100.00
27014;BME280;14556;52.222;4.510;2023-05-23T05:01:36;101468.72;;;9.37;100.00
27014;BME280;14556;52.222;4.510;2023-05-23T05:04:06;101473.56;;;9.33;100.00
27014;BME280;14556;52.222;4.510;2023-05-23T05:06:33;101486.56;;;9.36;100.00
27014;BME280;14556;52.222;4.510;2023-05-23T05:08:59;101481.72;;;9.40;100.00
27014;BME280;14556;52.222;4.510;2023-05-23T05:11:26;101473.53;;;9.41;100.00
27014;BME280;14556;52.222;4.510;2023-05-23T05:13:53;101472.50;;;9.42;100.00
27014;BME280;14556;52.222;4.510;2023-05-23T05:16:19;101484.19;;;9.41;100.00
27014;BME280;14556;52.222;4.510;2023-05-23T05:18:46;101491.69;;;9.46;100.00
27014;BME280;14556;52.222;4.510;2023-05-23T05:21:12;101494.34;;;9.46;100.00
27014;BME280;14556;52.222;4.510;2023-05-23T05:23:39;101498.00;;;9.53;100.00
27014;BME280;14556;52.222;4.510;2023-05-23T05:26:06;101497.38;;;9.43;100.00
27014;BME280;14556;52.222;4.510;2023-05-23T05:28:33;101503.69;;;9.50;100.00
27014;BME280;14556;52.222;4.510;2023-05-23T05:31:00;101497.31;;;9.51;100.00
27014;BME280;14556;52.222;4.510;2023-05-23T05:33:30;101498.00;;;9.53;100.00
27014;BME280;14556;52.222;4.510;2023-05-23T05:36:02;101504.53;;;9.51;100.00
27014;BME280;14556;52.222;4.510;2023-05-23T05:38:29;101506.19;;;9.52;100.00
27014;BME280;14556;52.222;4.510;2023-05-23T05:40:55;101498.84;;;9.46;100.00
27014;BME280;14556;52.222;4.510;2023-05-23T05:43:22;101515.84;;;9.53;100.00
27014;BME280;14556;52.222;4.510;2023-05-23T05:45:49;101520.38;;;9.44;100.00
27014;BME280;14556;52.222;4.510;2023-05-23T05:48:15;101511.56;;;9.43;100.00
27014;BME280;14556;52.222;4.510;2023-05-23T05:50:42;101535.06;;;9.48;100.00
27014;BME280;14556;52.222;4.510;2023-05-23T05:53:12;101514.44;;;9.34;100.00
27014;BME280;14556;52.222;4.510;2023-05-23T05:55:39;101533.78;;;9.36;100.00
27014;BME280;14556;52.222;4.510;2023-05-23T05:58:05;101526.47;;;9.29;100.00
27014;BME280;14556;52.222;4.510;2023-05-23T06:00:32;101522.13;;;9.28;100.00
27014;BME280;14556;52.222;4.510;2023-05-23T06:03:00;101534.19;;;9.24;100.00
27014;BME280;14556;52.222;4.510;2023-05-23T06:05:27;101517.50;;;9.22;100.00
27014;BME280;14556;52.222;4.510;2023-05-23T06:07:53;101529.81;;;9.23;100.00
27014;BME280;14556;52.222;4.510;2023-05-23T06:10:20;101538.31;;;9.27;100.00
27014;BME280;14556;52.222;4.510;2023-05-23T06:12:46;101535.31;;;9.30;100.00
27014;BME280;14556;52.222;4.510;2023-05-23T06:15:13;101539.81;;;9.29;100.00
27014;BME280;14556;52.222;4.510;2023-05-23T06:17:41;101543.97;;;9.32;100.00
27014;BME280;14556;52.222;4.510;2023-05-23T06:20:10;101528.31;;;9.29;100.00
27014;BME280;14556;52.222;4.510;2023-05-23T06:22:37;101537.16;;;9.29;100.00
27014;BME280;14556;52.222;4.510;2023-05-23T06:25:05;101537.78;;;9.40;100.00
27014;BME280;14556;52.222;4.510;2023-05-23T06:27:32;101538.28;;;9.43;100.00
27014;BME280;14556;52.222;4.510;2023-05-23T06:29:58;101537.03;;;9.54;100.00
27014;BME280;14556;52.222;4.510;2023-05-23T06:32:25;101547.03;;;9.61;100.00
27014;BME280;14556;52.222;4.510;2023-05-23T06:34:51;101545.03;;;9.63;100.00
27014;BME280;14556;52.222;4.510;2023-05-23T06:37:18;101538.50;;;9.65;100.00
27014;BME280;14556;52.222;4.510;2023-05-23T06:39:44;101537.31;;;9.68;100.00
27014;BME280;14556;52.222;4.510;2023-05-23T06:42:11;101523.31;;;9.66;100.00
27014;BME280;14556;52.222;4.510;2023-05-23T06:44:37;101525.06;;;9.74;100.00
27014;BME280;14556;52.222;4.510;2023-05-23T06:47:04;101518.91;;;9.73;100.00
27014;BME280;14556;52.222;4.510;2023-05-23T06:49:30;101526.56;;;9.76;100.00
27014;BME280;14556;52.222;4.510;2023-05-23T06:51:57;101533.19;;;9.89;100.00
27014;BME280;14556;52.222;4.510;2023-05-23T06:54:23;101541.06;;;10.06;100.00
27014;BME280;14556;52.222;4.510;2023-05-23T06:56:50;101527.34;;;10.09;100.00
27014;BME280;14556;52.222;4.510;2023-05-23T06:59:18;101545.56;;;10.13;100.00
27014;BME280;14556;52.222;4.510;2023-05-23T07:01:44;101538.47;;;10.21;100.00
27014;BME280;14556;52.222;4.510;2023-05-23T07:04:11;101533.94;;;10.45;100.00
27014;BME280;14556;52.222;4.510;2023-05-23T07:06:38;101538.75;;;10.49;100.00
27014;BME280;14556;52.222;4.510;2023-05-23T07:09:05;101534.91;;;10.52;100.00
27014;BME280;14556;52.222;4.510;2023-05-23T07:11:31;101527.06;;;10.50;100.00
27014;BME280;14556;52.222;4.510;2023-05-23T07:13:58;101543.41;;;10.56;100.00
27014;BME280;14556;52.222;4.510;2023-05-23T07:16:25;101532.91;;;10.46;100.00
27014;BME280;14556;52.222;4.510;2023-05-23T07:18:51;101540.13;;;10.45;100.00
27014;BME280;14556;52.222;4.510;2023-05-23T07:21:18;101546.97;;;10.48;100.00
27014;BME280;14556;52.222;4.510;2023-05-23T07:23:45;101535.09;;;10.50;100.00
27014;BME280;14556;52.222;4.510;2023-05-23T07:26:11;101545.72;;;10.59;100.00
27014;BME280;14556;52.222;4.510;2023-05-23T07:28:38;101542.31;;;10.42;100.00
27014;BME280;14556;52.222;4.510;2023-05-23T07:31:05;101561.06;;;10.42;100.00
27014;BME280;14556;52.222;4.510;2023-05-23T07:33:34;101565.75;;;10.39;100.00
27014;BME280;14556;52.222;4.510;2023-05-23T07:36:02;101561.53;;;10.45;100.00
27014;BME280;14556;52.222;4.510;2023-05-23T07:38:28;101565.63;;;10.56;100.00
27014;BME280;14556;52.222;4.510;2023-05-23T07:40:55;101562.06;;;10.64;100.00
27014;BME280;14556;52.222;4.510;2023-05-23T07:43:36;101557.75;;;10.78;100.00
27014;BME280;14556;52.222;4.510;2023-05-23T07:46:03;101561.63;;;10.91;100.00
27014;BME280;14556;52.222;4.510;2023-05-23T07:48:29;101548.06;;;10.92;100.00
27014;BME280;14556;52.222;4.510;2023-05-23T07:50:57;101551.94;;;10.90;100.00
27014;BME280;14556;52.222;4.510;2023-05-23T07:53:23;101567.34;;;11.18;100.00
27014;BME280;14556;52.222;4.510;2023-05-23T07:55:50;101553.16;;;11.17;100.00
27014;BME280;14556;52.222;4.510;2023-05-23T07:58:17;101555.09;;;11.08;100.00
27014;BME280;14556;52.222;4.510;2023-05-23T08:00:44;101581.88;;;11.08;100.00
27014;BME280;14556;52.222;4.510;2023-05-23T08:03:11;101573.06;;;10.84;100.00
27014;BME280;14556;52.222;4.510;2023-05-23T08:05:37;101574.47;;;10.80;100.00
27014;BME280;14556;52.222;4.510;2023-05-23T08:08:04;101576.75;;;10.83;100.00
27014;BME280;14556;52.222;4.510;2023-05-23T08:10:31;101570.47;;;10.91;100.00
27014;BME280;14556;52.222;4.510;2023-05-23T08:12:58;101578.69;;;10.90;100.00
27014;BME280;14556;52.222;4.510;2023-05-23T08:15:26;101575.03;;;10.91;100.00
27014;BME280;14556;52.222;4.510;2023-05-23T08:17:54;101583.44;;;11.03;100.00
27014;BME280;14556;52.222;4.510;2023-05-23T08:20:23;101583.97;;;11.28;100.00
27014;BME280;14556;52.222;4.510;2023-05-23T08:23:00;101576.75;;;11.59;100.00
27014;BME280;14556;52.222;4.510;2023-05-23T08:25:27;101572.25;;;11.44;100.00
27014;BME280;14556;52.222;4.510;2023-05-23T08:27:58;101580.38;;;11.36;100.00
27014;BME280;14556;52.222;4.510;2023-05-23T08:30:27;101579.28;;;11.15;100.00
27014;BME280;14556;52.222;4.510;2023-05-23T08:32:54;101584.66;;;11.15;100.00
27014;BME280;14556;52.222;4.510;2023-05-23T08:35:22;101591.38;;;11.26;100.00
27014;BME280;14556;52.222;4.510;2023-05-23T08:37:49;101578.38;;;11.38;100.00
27014;BME280;14556;52.222;4.510;2023-05-23T08:40:20;101591.00;;;11.44;100.00
27014;BME280;14556;52.222;4.510;2023-05-23T08:42:48;101588.69;;;11.41;100.00
27014;BME280;14556;52.222;4.510;2023-05-23T08:45:15;101590.44;;;11.34;100.00
27014;BME280;14556;52.222;4.510;2023-05-23T08:47:43;101597.47;;;11.50;100.00
27014;BME280;14556;52.222;4.510;2023-05-23T08:50:15;101585.81;;;11.58;100.00
27014;BME280;14556;52.222;4.510;2023-05-23T08:52:57;101609.38;;;11.63;100.00
27014;BME280;14556;52.222;4.510;2023-05-23T08:55:26;101597.66;;;11.48;100.00
27014;BME280;14556;52.222;4.510;2023-05-23T08:57:54;101592.53;;;11.69;100.00
27014;BME280;14556;52.222;4.510;2023-05-23T09:00:21;101591.69;;;11.68;100.00
27014;BME280;14556;52.222;4.510;2023-05-23T09:02:49;101596.22;;;11.83;100.00
27014;BME280;14556;52.222;4.510;2023-05-23T09:05:17;101602.75;;;11.95;100.00
27014;BME280;14556;52.222;4.510;2023-05-23T09:07:45;101608.78;;;11.82;100.00
27014;BME280;14556;52.222;4.510;2023-05-23T09:10:14;101618.13;;;11.87;100.00
27014;BME280;14556;52.222;4.510;2023-05-23T09:12:42;101612.38;;;11.90;100.00
27014;BME280;14556;52.222;4.510;2023-05-23T09:15:09;101620.09;;;12.00;100.00
27014;BME280;14556;52.222;4.510;2023-05-23T09:17:36;101615.13;;;11.96;100.00
27014;BME280;14556;52.222;4.510;2023-05-23T09:20:10;101618.69;;;11.82;100.00
27014;BME280;14556;52.222;4.510;2023-05-23T09:22:37;101628.88;;;11.71;100.00
27014;BME280;14556;52.222;4.510;2023-05-23T09:25:04;101624.06;;;11.67;100.00
27014;BME280;14556;52.222;4.510;2023-05-23T09:27:31;101642.06;;;11.88;100.00
27014;BME280;14556;52.222;4.510;2023-05-23T09:30:04;101636.03;;;12.01;100.00
27014;BME280;14556;52.222;4.510;2023-05-23T09:32:31;101634.34;;;12.00;100.00
27014;BME280;14556;52.222;4.510;2023-05-23T09:35:00;101631.72;;;11.85;100.00
27014;BME280;14556;52.222;4.510;2023-05-23T09:37:34;101628.75;;;11.80;100.00
27014;BME280;14556;52.222;4.510;2023-05-23T09:40:05;101634.66;;;11.90;100.00
27014;BME280;14556;52.222;4.510;2023-05-23T09:42:32;101637.81;;;11.79;100.00
27014;BME280;14556;52.222;4.510;2023-05-23T09:44:59;101644.03;;;11.64;100.00
27014;BME280;14556;52.222;4.510;2023-05-23T09:47:29;101649.84;;;11.68;100.00
27014;BME280;14556;52.222;4.510;2023-05-23T09:49:56;101648.81;;;11.69;100.00
27014;BME280;14556;52.222;4.510;2023-05-23T09:52:22;101642.81;;;11.82;100.00
27014;BME280;14556;52.222;4.510;2023-05-23T09:54:49;101653.53;;;11.82;100.00
27014;BME280;14556;52.222;4.510;2023-05-23T09:57:18;101655.66;;;11.87;100.00
27014;BME280;14556;52.222;4.510;2023-05-23T09:59:52;101657.78;;;11.61;100.00
27014;BME280;14556;52.222;4.510;2023-05-23T10:03:05;101642.53;;;11.61;100.00
27014;BME280;14556;52.222;4.510;2023-05-23T10:05:46;101649.56;;;11.78;100.00
27014;BME280;14556;52.222;4.510;2023-05-23T10:08:35;101640.47;;;11.79;100.00
27014;BME280;14556;52.222;4.510;2023-05-23T10:13:47;101656.97;;;11.60;100.00
27014;BME280;14556;52.222;4.510;2023-05-23T10:16:39;101655.66;;;11.41;100.00
27014;BME280;14556;52.222;4.510;2023-05-23T10:19:23;101671.28;;;11.53;100.00
27014;BME280;14556;52.222;4.510;2023-05-23T10:22:00;101671.47;;;11.51;100.00
27014;BME280;14556;52.222;4.510;2023-05-23T10:24:28;101674.44;;;11.41;100.00
27014;BME280;14556;52.222;4.510;2023-05-23T10:26:55;101653.25;;;11.31;100.00
27014;BME280;14556;52.222;4.510;2023-05-23T10:29:24;101669.03;;;11.11;100.00
27014;BME280;14556;52.222;4.510;2023-05-23T10:31:51;101673.53;;;11.10;100.00
27014;BME280;14556;52.222;4.510;2023-05-23T10:37:04;101667.09;;;11.20;100.00
27014;BME280;14556;52.222;4.510;2023-05-23T10:39:47;101666.09;;;11.36;100.00
27014;BME280;14556;52.222;4.510;2023-05-23T10:42:19;101660.31;;;11.63;100.00
27014;BME280;14556;52.222;4.510;2023-05-23T10:44:48;101658.63;;;11.77;100.00
27014;BME280;14556;52.222;4.510;2023-05-23T10:47:25;101665.25;;;12.11;100.00
27014;BME280;14556;52.222;4.510;2023-05-23T10:49:55;101661.53;;;12.12;100.00
27014;BME280;14556;52.222;4.510;2023-05-23T10:52:23;101664.47;;;12.17;100.00
27014;BME280;14556;52.222;4.510;2023-05-23T10:54:53;101667.09;;;12.11;100.00
27014;BME280;14556;52.222;4.510;2023-05-23T10:57:24;101663.88;;;11.85;100.00
27014;BME280;14556;52.222;4.510;2023-05-23T10:59:54;101670.44;;;11.82;100.00
27014;BME280;14556;52.222;4.510;2023-05-23T11:02:25;101669.41;;;11.99;100.00
27014;BME280;14556;52.222;4.510;2023-05-23T11:07:41;101660.41;;;12.21;100.00
27014;BME280;14556;52.222;4.510;2023-05-23T11:10:09;101670.41;;;12.50;100.00
27014;BME280;14556;52.222;4.510;2023-05-23T11:12:38;101673.09;;;12.50;100.00
27014;BME280;14556;52.222;4.510;2023-05-23T11:15:20;101658.50;;;12.15;100.00
27014;BME280;14556;52.222;4.510;2023-05-23T11:17:55;101673.00;;;12.06;100.00
27014;BME280;14556;52.222;4.510;2023-05-23T11:20:25;101665.91;;;12.13;100.00
27014;BME280;14556;52.222;4.510;2023-05-23T11:23:06;101665.72;;;12.37;100.00
27014;BME280;14556;52.222;4.510;2023-05-23T11:25:43;101675.13;;;12.26;100.00
27014;BME280;14556;52.222;4.510;2023-05-23T11:28:11;101662.91;;;12.23;100.00
27014;BME280;14556;52.222;4.510;2023-05-23T11:30:39;101676.31;;;12.23;100.00
27014;BME280;14556;52.222;4.510;2023-05-23T11:33:10;101675.13;;;12.26;100.00
27014;BME280;14556;52.222;4.510;2023-05-23T11:35:45;101675.13;;;12.26;100.00
27014;BME280;14556;52.222;4.510;2023-05-23T11:38:15;101682.66;;;12.37;100.00
27014;BME280;14556;52.222;4.510;2023-05-23T11:40:44;101672.78;;;12.23;100.00
27014;BME280;14556;52.222;4.510;2023-05-23T11:43:13;101673.41;;;12.40;100.00
27014;BME280;14556;52.222;4.510;2023-05-23T11:45:41;101684.75;;;12.42;100.00
27014;BME280;14556;52.222;4.510;2023-05-23T11:48:10;101674.72;;;12.29;100.00
27014;BME280;14556;52.222;4.510;2023-05-23T11:53:11;101670.78;;;12.47;100.00
27014;BME280;14556;52.222;4.510;2023-05-23T11:55:47;101660.66;;;12.49;100.00
27014;BME280;14556;52.222;4.510;2023-05-23T11:58:14;101681.06;;;12.65;100.00
27014;BME280;14556;52.222;4.510;2023-05-23T12:00:44;101682.72;;;12.44;100.00
27014;BME280;14556;52.222;4.510;2023-05-23T12:03:11;101691.28;;;12.32;100.00
27014;BME280;14556;52.222;4.510;2023-05-23T12:05:38;101672.34;;;12.19;100.00
27014;BME280;14556;52.222;4.510;2023-05-23T12:08:05;101672.81;;;12.07;100.00
27014;BME280;14556;52.222;4.510;2023-05-23T12:10:31;101682.41;;;12.02;100.00
27014;BME280;14556;52.222;4.510;2023-05-23T12:12:58;101678.09;;;12.01;100.00
27014;BME280;14556;52.222;4.510;2023-05-23T12:15:25;101686.50;;;12.13;100.00
27014;BME280;14556;52.222;4.510;2023-05-23T12:17:54;101688.88;;;12.23;100.00
27014;BME280;14556;52.222;4.510;2023-05-23T12:20:23;101680.50;;;11.95;100.00
27014;BME280;14556;52.222;4.510;2023-05-23T12:22:49;101685.66;;;12.12;100.00
27014;BME280;14556;52.222;4.510;2023-05-23T12:25:16;101678.06;;;12.16;100.00
27014;BME280;14556;52.222;4.510;2023-05-23T12:27:42;101674.66;;;12.22;100.00
27014;BME280;14556;52.222;4.510;2023-05-23T12:30:13;101674.44;;;12.08;100.00
27014;BME280;14556;52.222;4.510;2023-05-23T12:32:42;101683.00;;;12.12;100.00
27014;BME280;14556;52.222;4.510;2023-05-23T12:35:11;101689.53;;;12.25;100.00
27014;BME280;14556;52.222;4.510;2023-05-23T12:37:47;101687.16;;;12.15;100.00
27014;BME280;14556;52.222;4.510;2023-05-23T12:40:18;101700.81;;;12.05;100.00
27014;BME280;14556;52.222;4.510;2023-05-23T12:42:57;101701.84;;;12.19;100.00
27014;BME280;14556;52.222;4.510;2023-05-23T12:45:31;101701.94;;;12.26;100.00
27014;BME280;14556;52.222;4.510;2023-05-23T12:48:02;101698.56;;;12.39;100.00
27014;BME280;14556;52.222;4.510;2023-05-23T12:50:29;101696.72;;;12.39;100.00
27014;BME280;14556;52.222;4.510;2023-05-23T12:52:57;101692.09;;;12.33;100.00
27014;BME280;14556;52.222;4.510;2023-05-23T12:55:23;101686.41;;;12.06;100.00
27014;BME280;14556;52.222;4.510;2023-05-23T12:57:50;101698.31;;;12.03;100.00
27014;BME280;14556;52.222;4.510;2023-05-23T13:00:17;101699.16;;;12.04;100.00
27014;BME280;14556;52.222;4.510;2023-05-23T13:02:44;101700.38;;;12.01;100.00